createdAt,value
2022-10-22T00:00:00.000Z,15.64
2022-10-22T00:15:00.000Z,15.19
2022-10-22T00:30:00.000Z,14.98
2022-10-22T00:45:00.000Z,14.9
2022-10-22T01:00:00.000Z,14.63
2022-10-22T01:15:00.000Z,14.55
2022-10-22T01:30:00.000Z,14.5
2022-10-22T01:45:00.000Z,14.51
2022-10-22T02:00:00.000Z,14.24
2022-10-22T02:15:00.000Z,14.2
2022-10-22T02:30:00.000Z,14.31
2022-10-22T02:45:00.000Z,14.34
2022-10-22T03:00:00.000Z,14.47
2022-10-22T03:15:00.000Z,14.53
2022-10-22T03:30:00.000Z,14.65
2022-10-22T03:45:00.000Z,14.41
2022-10-22T04:00:00.000Z,14.24
2022-10-22T04:15:00.000Z,14.53
2022-10-22T04:30:00.000Z,14.78
2022-10-22T04:45:00.000Z,14.96
2022-10-22T05:00:00.000Z,15.14
2022-10-22T05:15:00.000Z,15.25
2022-10-22T05:30:00.000Z,15.38
2022-10-22T05:45:00.000Z,15.55
2022-10-22T06:00:00.000Z,15.59
2022-10-22T06:15:00.000Z,15.55
2022-10-22T06:30:00.000Z,15.52
2022-10-22T06:45:00.000Z,15.41
2022-10-22T07:00:00.000Z,15.38
2022-10-22T07:15:00.000Z,15.42
2022-10-22T07:30:00.000Z,15.64
2022-10-22T07:45:00.000Z,15.85
2022-10-22T08:00:00.000Z,16.03
2022-10-22T08:15:00.000Z,16.03
2022-10-22T08:30:00.000Z,16.13
2022-10-22T08:45:00.000Z,16.17
2022-10-22T09:00:00.000Z,16.18
2022-10-22T09:15:00.000Z,16.37
2022-10-22T09:30:00.000Z,16.49
2022-10-22T09:45:00.000Z,16.73
2022-10-22T10:00:00.000Z,17
2022-10-22T10:15:00.000Z,17.15
2022-10-22T10:30:00.000Z,17.35
2022-10-22T10:45:00.000Z,17.39
2022-10-22T11:00:00.000Z,17.4
2022-10-22T11:15:00.000Z,17.39
2022-10-22T11:30:00.000Z,17.39
2022-10-22T11:45:00.000Z,17.46
2022-10-22T12:00:00.000Z,17.77
2022-10-22T12:15:00.000Z,17.87
2022-10-22T12:30:00.000Z,18.08
2022-10-22T12:45:00.000Z,18.23
2022-10-22T13:00:00.000Z,18.52
2022-10-22T13:15:00.000Z,18.83
2022-10-22T13:30:00.000Z,19.16
2022-10-22T13:45:00.000Z,19.29
2022-10-22T14:00:00.000Z,18.72
2022-10-22T14:15:00.000Z,18.01
2022-10-22T14:30:00.000Z,16.64
2022-10-22T14:45:00.000Z,16.67
2022-10-22T15:00:00.000Z,16.61
2022-10-22T15:15:00.000Z,16.6
2022-10-22T15:30:00.000Z,16.47
2022-10-22T15:45:00.000Z,16.04
2022-10-22T16:00:00.000Z,15.66
2022-10-22T16:15:00.000Z,15.27
2022-10-22T16:30:00.000Z,14.99
2022-10-22T16:45:00.000Z,14.8
2022-10-22T17:00:00.000Z,14.65
2022-10-22T17:15:00.000Z,14.54
2022-10-22T17:30:00.000Z,14.42
2022-10-22T17:45:00.000Z,14.25
2022-10-22T18:00:00.000Z,14.02
2022-10-22T18:15:00.000Z,13.79
2022-10-22T18:30:00.000Z,13.59
2022-10-22T18:45:00.000Z,13.46
2022-10-22T19:00:00.000Z,13.36
2022-10-22T19:15:00.000Z,13.3
2022-10-22T19:30:00.000Z,13.31
2022-10-22T19:45:00.000Z,13.1
2022-10-22T20:00:00.000Z,13.02
2022-10-22T20:15:00.000Z,12.86
2022-10-22T20:30:00.000Z,12.76
2022-10-22T20:45:00.000Z,12.56
2022-10-22T21:00:00.000Z,12.32
2022-10-22T21:15:00.000Z,12.19
2022-10-22T21:30:00.000Z,12.08
2022-10-22T21:45:00.000Z,12.29
2022-10-22T22:00:00.000Z,12.6
2022-10-22T22:15:00.000Z,12.57
2022-10-22T22:30:00.000Z,12.48
2022-10-22T22:45:00.000Z,12.53
2022-10-22T23:00:00.000Z,12.28
2022-10-22T23:15:00.000Z,12.17
2022-10-22T23:30:00.000Z,12.34
2022-10-22T23:45:00.000Z,12.24
